Time;durP1;ratioP1;P1;durP2;ratioP2;P2;SDS_P1;SDS_P2;PMS_P1;PMS_P2;Temp;Humidity;BMP_temperature;BMP_pressure;BME280_temperature;BME280_humidity;BME280_pressure;Samples;Min_cycle;Max_cycle;Signal;HPM_P1;HPM_P2
2024/01/31 00:01:54;;;;;;;4.28;2.60;;;16.80;68.00;;;;;;5153997;27;45365;-52
2024/01/31 00:04:21;;;;;;;3.88;2.40;;;16.80;68.10;;;;;;5149952;27;46575;-52
2024/01/31 00:06:49;;;;;;;3.70;2.25;;;16.80;68.20;;;;;;5149970;27;45164;-52
2024/01/31 00:09:16;;;;;;;3.30;2.38;;;16.70;68.10;;;;;;5149073;27;45318;-51
2024/01/31 00:11:43;;;;;;;4.72;2.50;;;16.70;68.20;;;;;;5153987;27;45343;-51
2024/01/31 00:14:10;;;;;;;3.00;2.65;;;16.70;68.00;;;;;;5151494;27;45430;-51
2024/01/31 00:16:37;;;;;;;4.05;2.70;;;16.70;68.30;;;;;;5150008;27;45090;-51
2024/01/31 00:19:05;;;;;;;3.58;2.10;;;16.70;68.00;;;;;;5150675;27;45234;-51
2024/01/31 00:21:31;;;;;;;3.15;2.75;;;16.70;68.20;;;;;;5151311;27;45212;-51
2024/01/31 00:23:58;;;;;;;3.30;2.50;;;16.70;67.90;;;;;;5152800;27;46564;-52
2024/01/31 00:26:25;;;;;;;4.70;2.60;;;16.70;67.90;;;;;;5150213;27;45168;-52
2024/01/31 00:28:52;;;;;;;3.35;2.53;;;16.70;68.00;;;;;;5148485;27;45085;-51
2024/01/31 00:31:19;;;;;;;4.05;2.70;;;16.70;68.00;;;;;;5150397;27;45145;-51
2024/01/31 00:33:46;;;;;;;3.80;2.40;;;16.70;68.90;;;;;;5149567;27;45249;-51
2024/01/31 00:36:15;;;;;;;3.88;2.72;;;16.70;67.90;;;;;;5150867;27;45332;-51
2024/01/31 00:38:41;;;;;;;3.17;2.47;;;16.80;67.90;;;;;;5151557;27;45195;-51
2024/01/31 00:41:08;;;;;;;4.43;2.83;;;16.70;67.80;;;;;;5148108;27;45324;-51
2024/01/31 00:43:35;;;;;;;3.65;2.60;;;16.80;68.00;;;;;;5150304;27;47427;-51
2024/01/31 00:46:04;;;;;;;5.18;2.50;;;16.80;67.90;;;;;;5149885;27;45346;-51
2024/01/31 00:48:32;;;;;;;3.53;2.45;;;16.70;68.00;;;;;;5151115;27;45378;-51
2024/01/31 00:50:59;;;;;;;3.80;2.50;;;16.70;68.10;;;;;;5150980;27;45258;-51
2024/01/31 00:53:27;;;;;;;3.92;2.60;;;16.70;68.00;;;;;;5152266;27;46528;-52
2024/01/31 00:55:54;;;;;;;4.53;2.67;;;16.70;68.00;;;;;;5149213;27;45329;-51
2024/01/31 00:58:20;;;;;;;3.60;2.63;;;16.70;68.20;;;;;;5148973;27;45305;-51
2024/01/31 01:00:47;;;;;;;3.30;2.28;;;16.70;68.20;;;;;;5150476;27;45161;-51
2024/01/31 01:03:14;;;;;;;3.58;2.55;;;16.70;68.20;;;;;;5149068;27;47478;-51
2024/01/31 01:05:40;;;;;;;2.85;2.45;;;16.70;68.40;;;;;;5153193;27;45221;-51
2024/01/31 01:08:08;;;;;;;3.85;2.60;;;16.70;68.40;;;;;;5150287;27;45236;-51
2024/01/31 01:10:36;;;;;;;3.20;2.25;;;16.70;68.30;;;;;;5149520;27;45151;-51
2024/01/31 01:13:03;;;;;;;3.05;2.25;;;16.70;68.50;;;;;;5150612;27;46480;-51
2024/01/31 01:15:29;;;;;;;3.38;2.58;;;16.70;68.40;;;;;;5150151;27;45152;-51
2024/01/31 01:17:56;;;;;;;3.38;2.60;;;16.70;68.30;;;;;;5150399;27;45276;-51
2024/01/31 01:20:23;;;;;;;2.60;2.20;;;16.70;68.50;;;;;;5148765;27;45148;-51
2024/01/31 01:22:49;;;;;;;4.68;2.78;;;16.70;68.40;;;;;;5152444;27;45448;-51
2024/01/31 01:25:17;;;;;;;3.47;2.63;;;16.70;68.40;;;;;;5148242;27;45783;-51
2024/01/31 01:27:50;;;;;;;5.10;2.95;;;16.70;68.20;;;;;;5151319;27;45170;-51
2024/01/31 01:30:17;;;;;;;3.45;2.47;;;16.70;68.20;;;;;;5146521;27;45240;-51
2024/01/31 01:32:44;;;;;;;3.97;2.53;;;16.70;68.10;;;;;;5152174;27;46382;-51
2024/01/31 01:35:11;;;;;;;4.35;3.28;;;16.80;67.80;;;;;;5150384;27;45299;-51
2024/01/31 01:37:38;;;;;;;4.40;3.22;;;16.70;67.10;;;;;;5148826;27;45164;-51
2024/01/31 01:40:06;;;;;;;4.70;3.58;;;16.70;67.00;;;;;;5147510;27;45438;-51
2024/01/31 01:42:32;;;;;;;5.30;3.40;;;16.70;68.00;;;;;;5153659;27;45170;-51
2024/01/31 01:45:01;;;;;;;6.78;4.03;;;16.70;66.60;;;;;;5150706;27;45392;-51
2024/01/31 01:47:27;;;;;;;5.68;3.97;;;16.70;66.60;;;;;;5150293;27;45346;-51
2024/01/31 01:49:54;;;;;;;4.60;3.25;;;16.70;66.40;;;;;;5148124;27;45218;-52
2024/01/31 01:52:21;;;;;;;5.68;3.88;;;16.60;66.20;;;;;;5148364;27;47011;-52
2024/01/31 01:54:48;;;;;;;5.55;4.10;;;16.60;66.10;;;;;;5147634;27;45230;-51
2024/01/31 01:57:15;;;;;;;6.18;4.57;;;16.60;66.10;;;;;;5146427;27;45317;-52
2024/01/31 01:59:43;;;;;;;5.30;3.85;;;16.60;66.10;;;;;;5151253;27;45299;-52
2024/01/31 02:02:12;;;;;;;8.18;4.53;;;16.60;66.10;;;;;;5148952;27;47497;-51
2024/01/31 02:04:39;;;;;;;6.50;4.90;;;16.60;65.70;;;;;;5147877;27;45224;-52
2024/01/31 02:07:06;;;;;;;5.80;4.45;;;16.60;65.60;;;;;;5149896;27;45760;-52
2024/01/31 02:09:34;;;;;;;6.47;4.57;;;16.60;65.60;;;;;;5153260;27;45320;-52
2024/01/31 02:12:00;;;;;;;6.38;5.05;;;16.60;65.50;;;;;;5154135;27;46539;-52
2024/01/31 02:14:27;;;;;;;6.72;4.32;;;16.50;65.30;;;;;;5155359;27;45177;-52
2024/01/31 02:16:57;;;;;;;6.60;5.00;;;16.50;65.10;;;;;;5152809;27;45125;-52
2024/01/31 02:19:25;;;;;;;7.05;5.15;;;16.60;64.90;;;;;;5152452;27;45152;-51
2024/01/31 02:21:55;;;;;;;7.70;4.82;;;16.50;64.70;;;;;;5153578;27;48269;-52
2024/01/31 02:24:23;;;;;;;7.40;5.53;;;16.60;64.70;;;;;;5153152;27;45284;-52
2024/01/31 02:26:49;;;;;;;6.95;5.63;;;16.60;64.40;;;;;;5152351;27;45289;-52
2024/01/31 02:29:16;;;;;;;7.82;5.63;;;16.60;64.30;;;;;;5153107;27;45597;-52
2024/01/31 02:31:43;;;;;;;7.40;5.57;;;16.60;64.30;;;;;;5156153;27;45446;-52
2024/01/31 02:34:09;;;;;;;9.30;5.40;;;16.60;64.10;;;;;;5154275;27;45122;-52
2024/01/31 02:36:36;;;;;;;7.30;5.57;;;16.60;64.00;;;;;;5152042;27;45263;-52
2024/01/31 02:39:03;;;;;;;6.95;4.97;;;16.60;63.80;;;;;;5153068;27;45293;-52
2024/01/31 02:41:31;;;;;;;7.60;5.38;;;16.60;63.90;;;;;;5156004;27;45419;-52
2024/01/31 02:43:58;;;;;;;7.82;5.50;;;16.60;63.50;;;;;;5152163;27;45265;-52
2024/01/31 02:46:25;;;;;;;7.90;5.25;;;16.60;63.70;;;;;;5152865;27;45276;-52
2024/01/31 02:48:51;;;;;;;8.00;5.80;;;16.60;63.50;;;;;;5153327;27;45280;-51
2024/01/31 02:51:18;;;;;;;7.45;5.35;;;16.60;63.40;;;;;;5154380;27;46395;-51
2024/01/31 02:53:45;;;;;;;8.60;5.65;;;16.60;63.80;;;;;;5154256;27;46030;-52
2024/01/31 02:56:12;;;;;;;8.32;5.32;;;16.50;63.50;;;;;;5150849;27;45261;-52
2024/01/31 02:58:40;;;;;;;8.07;5.68;;;16.50;63.60;;;;;;5149743;27;45292;-52
2024/01/31 03:01:07;;;;;;;7.93;5.53;;;16.50;63.70;;;;;;5152885;27;44921;-52
2024/01/31 03:03:34;;;;;;;9.02;6.10;;;16.50;63.70;;;;;;5151788;27;45190;-51
2024/01/31 03:06:01;;;;;;;7.82;4.97;;;16.50;63.70;;;;;;5154739;27;45117;-52
2024/01/31 03:08:28;;;;;;;7.90;5.15;;;16.50;63.60;;;;;;5155846;27;45198;-52
2024/01/31 03:10:54;;;;;;;7.20;5.05;;;16.50;63.50;;;;;;5156170;27;45214;-51
2024/01/31 03:13:21;;;;;;;8.68;5.88;;;16.50;63.30;;;;;;5151159;27;45246;-52
2024/01/31 03:15:49;;;;;;;6.63;4.63;;;16.50;63.30;;;;;;5154358;27;45340;-52
2024/01/31 03:18:16;;;;;;;9.07;5.25;;;16.50;63.30;;;;;;5151680;27;45410;-52
2024/01/31 03:20:43;;;;;;;7.18;4.60;;;16.50;63.30;;;;;;5151247;27;45384;-52
2024/01/31 03:23:10;;;;;;;5.53;4.32;;;16.50;63.00;;;;;;5152654;27;45283;-51
2024/01/31 03:25:36;;;;;;;4.95;3.47;;;16.50;62.80;;;;;;5151732;27;45330;-52
2024/01/31 03:28:04;;;;;;;5.15;3.05;;;16.50;62.40;;;;;;5153082;27;45286;-51
2024/01/31 03:30:30;;;;;;;5.60;2.83;;;16.60;62.10;;;;;;5151469;27;46352;-51
2024/01/31 03:32:58;;;;;;;4.70;2.63;;;16.60;61.70;;;;;;5152867;27;45355;-51
2024/01/31 03:35:25;;;;;;;4.32;2.30;;;16.50;61.40;;;;;;5149371;27;44770;-52
2024/01/31 03:37:52;;;;;;;2.97;1.90;;;16.60;61.40;;;;;;5149314;27;45497;-51
2024/01/31 03:40:19;;;;;;;1.67;1.45;;;16.60;61.10;;;;;;5152041;27;47425;-51
2024/01/31 03:42:46;;;;;;;2.47;1.30;;;16.60;60.70;;;;;;5154054;27;44732;-51
2024/01/31 03:45:13;;;;;;;3.67;1.45;;;16.50;60.50;;;;;;5152061;27;45404;-51
2024/01/31 03:47:40;;;;;;;2.85;1.60;;;16.60;60.30;;;;;;5152013;27;45100;-52
2024/01/31 03:50:09;;;;;;;3.75;1.25;;;16.50;60.30;;;;;;5152183;27;47093;-51
2024/01/31 03:52:36;;;;;;;3.45;1.40;;;16.50;60.10;;;;;;5151115;27;45189;-52
2024/01/31 03:55:02;;;;;;;1.95;1.08;;;16.40;60.30;;;;;;5152751;27;45168;-51
2024/01/31 03:57:29;;;;;;;1.75;0.88;;;16.50;60.30;;;;;;5149336;27;44732;-51
2024/01/31 03:59:58;;;;;;;4.40;1.00;;;16.40;60.10;;;;;;5153193;27;46984;-51
2024/01/31 04:02:25;;;;;;;2.60;1.17;;;16.40;60.00;;;;;;5150981;27;45593;-51
2024/01/31 04:04:52;;;;;;;2.95;0.90;;;16.50;60.10;;;;;;5150824;27;45207;-51
2024/01/31 04:07:20;;;;;;;2.15;0.95;;;16.40;60.00;;;;;;5148759;27;45210;-51
2024/01/31 04:09:46;;;;;;;1.67;0.88;;;16.40;59.70;;;;;;5147295;27;46023;-51
2024/01/31 04:12:13;;;;;;;3.05;1.00;;;16.40;59.60;;;;;;5148859;27;45145;-51
2024/01/31 04:14:40;;;;;;;1.70;0.90;;;16.40;59.60;;;;;;5152225;27;44666;-51
2024/01/31 04:17:07;;;;;;;1.88;0.70;;;16.40;59.40;;;;;;5151041;27;44861;-51
2024/01/31 04:19:33;;;;;;;1.52;0.65;;;16.40;59.50;;;;;;5153314;27;47331;-51
2024/01/31 04:22:00;;;;;;;2.90;0.90;;;16.50;58.90;;;;;;5153459;27;44683;-51
2024/01/31 04:24:28;;;;;;;1.77;0.65;;;16.40;59.00;;;;;;5148824;27;45609;-51
2024/01/31 04:26:55;;;;;;;1.80;0.60;;;16.40;58.50;;;;;;5155453;27;45320;-51
2024/01/31 04:29:22;;;;;;;1.58;0.65;;;16.50;58.40;;;;;;5154330;27;45174;-51
2024/01/31 04:31:52;;;;;;;1.08;0.60;;;16.50;57.90;;;;;;5151578;27;45152;-51
2024/01/31 04:34:20;;;;;;;2.25;0.70;;;16.50;58.00;;;;;;5153104;27;45369;-51
2024/01/31 04:36:47;;;;;;;2.72;0.60;;;16.50;57.60;;;;;;5148465;27;45424;-51
2024/01/31 04:39:14;;;;;;;4.18;0.80;;;16.50;57.60;;;;;;5149233;27;46486;-51
2024/01/31 04:41:43;;;;;;;1.25;0.50;;;16.50;57.60;;;;;;5152658;27;45231;-51
2024/01/31 04:44:09;;;;;;;1.42;0.68;;;16.50;58.30;;;;;;5150666;27;45221;-51
2024/01/31 04:46:36;;;;;;;1.33;0.80;;;16.40;59.30;;;;;;5152077;27;45270;-51
2024/01/31 04:49:03;;;;;;;1.50;0.70;;;16.30;58.30;;;;;;5150450;27;45184;-52
2024/01/31 04:51:29;;;;;;;1.63;0.75;;;16.30;58.30;;;;;;5150118;27;45210;-52
2024/01/31 04:53:56;;;;;;;1.80;0.80;;;16.30;58.30;;;;;;5149174;27;45172;-51
2024/01/31 04:56:24;;;;;;;1.00;0.50;;;16.30;58.10;;;;;;5148616;27;45216;-52
2024/01/31 04:58:52;;;;;;;2.42;0.90;;;16.30;60.70;;;;;;5146862;27;45432;-52
2024/01/31 05:01:19;;;;;;;1.92;0.90;;;16.30;60.70;;;;;;5149415;27;45298;-53
2024/01/31 05:03:46;;;;;;;3.33;1.10;;;16.20;59.50;;;;;;5148696;27;45112;-52
2024/01/31 05:06:13;;;;;;;1.70;0.90;;;16.20;58.20;;;;;;5149936;27;45157;-52
2024/01/31 05:08:39;;;;;;;2.00;0.80;;;16.20;57.70;;;;;;5149952;27;47418;-51
2024/01/31 05:11:06;;;;;;;2.25;0.63;;;16.20;57.40;;;;;;5146837;27;45279;-51
2024/01/31 05:13:33;;;;;;;2.65;0.95;;;16.20;57.10;;;;;;5150411;27;45164;-51
2024/01/31 05:16:01;;;;;;;3.60;0.90;;;16.10;57.00;;;;;;5150739;27;45436;-51
2024/01/31 05:18:28;;;;;;;1.83;1.05;;;16.20;56.50;;;;;;5150413;27;48656;-52
2024/01/31 05:20:54;;;;;;;1.45;0.85;;;16.20;56.50;;;;;;5150894;27;45175;-52
2024/01/31 05:23:21;;;;;;;2.67;1.15;;;16.20;56.40;;;;;;5148427;27;44817;-52
2024/01/31 05:25:48;;;;;;;2.70;0.88;;;16.20;55.70;;;;;;5149463;27;45597;-52
2024/01/31 05:28:14;;;;;;;3.33;1.08;;;16.20;55.20;;;;;;5152823;27;46403;-52
2024/01/31 05:30:41;;;;;;;1.70;0.80;;;16.20;55.30;;;;;;5150347;27;45286;-52
2024/01/31 05:33:09;;;;;;;2.45;0.90;;;16.20;55.00;;;;;;5151609;27;46074;-52
2024/01/31 05:35:36;;;;;;;2.55;0.95;;;16.20;55.00;;;;;;5147401;27;45197;-52
2024/01/31 05:38:03;;;;;;;1.95;0.73;;;16.20;54.60;;;;;;5149026;27;47567;-52
2024/01/31 05:40:30;;;;;;;2.80;0.90;;;16.20;54.40;;;;;;5150191;27;45307;-52
2024/01/31 05:42:57;;;;;;;2.90;0.93;;;16.30;54.30;;;;;;5148843;27;45206;-52
2024/01/31 05:45:24;;;;;;;2.92;0.95;;;16.30;54.20;;;;;;5149216;27;45407;-52
2024/01/31 05:47:51;;;;;;;2.58;1.10;;;16.30;54.80;;;;;;5151526;27;48458;-52
2024/01/31 05:50:19;;;;;;;2.13;0.98;;;16.30;54.70;;;;;;5150029;27;45178;-52
2024/01/31 05:52:45;;;;;;;3.05;1.08;;;16.30;54.60;;;;;;5156986;27;45260;-52
2024/01/31 05:55:14;;;;;;;1.55;0.95;;;16.30;54.70;;;;;;5149437;27;45130;-52
2024/01/31 05:57:41;;;;;;;1.75;0.90;;;16.30;54.60;;;;;;5150449;27;45451;-52
2024/01/31 06:00:10;;;;;;;3.40;1.50;;;16.20;54.60;;;;;;5149686;27;45517;-52
2024/01/31 06:02:37;;;;;;;2.22;0.90;;;16.30;54.60;;;;;;5153061;27;45291;-52
2024/01/31 06:05:05;;;;;;;2.53;1.23;;;16.30;54.60;;;;;;5150006;27;45217;-52
2024/01/31 06:07:33;;;;;;;2.58;1.27;;;16.30;54.60;;;;;;5152984;27;45424;-52
2024/01/31 06:10:00;;;;;;;2.60;1.27;;;16.30;54.70;;;;;;5148558;27;45110;-52
2024/01/31 06:12:27;;;;;;;2.35;1.20;;;16.30;54.80;;;;;;5150015;27;44754;-52
2024/01/31 06:14:53;;;;;;;3.53;1.42;;;16.30;54.60;;;;;;5154249;27;45229;-52
2024/01/31 06:17:20;;;;;;;2.70;1.30;;;16.30;54.50;;;;;;5148653;27;46329;-52
2024/01/31 06:19:47;;;;;;;2.83;1.10;;;16.30;54.50;;;;;;5151448;27;45259;-52
2024/01/31 06:22:14;;;;;;;2.03;1.30;;;16.30;54.40;;;;;;5153301;27;45162;-52
2024/01/31 06:24:42;;;;;;;2.97;1.20;;;16.30;54.00;;;;;;5147781;27;45185;-52
2024/01/31 06:27:09;;;;;;;2.45;1.50;;;16.30;53.90;;;;;;5148539;27;45316;-52
2024/01/31 06:29:39;;;;;;;3.42;1.40;;;16.30;53.60;;;;;;5147406;27;45308;-52
2024/01/31 06:32:07;;;;;;;3.05;1.45;;;16.30;53.50;;;;;;5151234;27;44657;-52
2024/01/31 06:34:34;;;;;;;3.03;1.42;;;16.30;53.40;;;;;;5153807;27;45319;-52
2024/01/31 06:37:01;;;;;;;2.22;1.45;;;16.30;53.30;;;;;;5145764;27;46602;-52
2024/01/31 06:39:28;;;;;;;3.10;1.33;;;16.30;53.40;;;;;;5152432;27;46317;-52
2024/01/31 06:41:56;;;;;;;2.63;1.50;;;16.30;53.90;;;;;;5154014;27;45180;-52
2024/01/31 06:44:22;;;;;;;1.60;1.20;;;16.40;53.60;;;;;;5149393;27;45193;-52
2024/01/31 06:46:50;;;;;;;2.28;1.40;;;16.40;53.50;;;;;;5150508;27;46258;-52
2024/01/31 06:49:16;;;;;;;1.88;1.33;;;16.40;53.70;;;;;;5148824;27;44850;-52
2024/01/31 06:51:43;;;;;;;3.50;1.92;;;16.30;54.00;;;;;;5152275;27;45165;-52
2024/01/31 06:54:12;;;;;;;1.38;1.02;;;16.30;54.40;;;;;;5149285;27;45287;-52
2024/01/31 06:56:38;;;;;;;2.80;1.47;;;16.30;55.80;;;;;;5151355;27;47153;-52
2024/01/31 06:59:06;;;;;;;1.80;1.30;;;16.30;56.60;;;;;;5153464;27;44736;-52
2024/01/31 07:01:33;;;;;;;3.15;1.38;;;16.30;57.20;;;;;;5152918;27;45266;-52
2024/01/31 07:04:00;;;;;;;3.13;1.58;;;16.20;57.60;;;;;;5152109;27;45302;-52
2024/01/31 07:06:27;;;;;;;2.85;1.38;;;16.30;58.00;;;;;;5155267;27;45286;-52
2024/01/31 07:08:53;;;;;;;3.38;1.23;;;16.20;58.30;;;;;;5151426;27;45180;-52
2024/01/31 07:11:20;;;;;;;2.72;1.60;;;16.30;58.70;;;;;;5152171;27;45183;-52
2024/01/31 07:13:47;;;;;;;2.53;1.42;;;16.30;58.80;;;;;;5152239;27;45380;-52
2024/01/31 07:16:15;;;;;;;3.22;1.40;;;16.30;58.90;;;;;;5152967;27;45167;-52
2024/01/31 07:18:43;;;;;;;2.60;1.10;;;16.30;59.30;;;;;;5154224;27;45129;-52
2024/01/31 07:21:10;;;;;;;1.90;1.30;;;16.30;59.50;;;;;;5152540;27;45142;-52
2024/01/31 07:23:37;;;;;;;1.63;1.20;;;16.30;59.40;;;;;;5154158;27;45198;-52
2024/01/31 07:26:04;;;;;;;2.28;1.20;;;16.40;59.60;;;;;;5150899;27;46488;-52
2024/01/31 07:28:36;;;;;;;1.90;1.27;;;16.40;59.60;;;;;;5150795;27;45170;-52
2024/01/31 07:31:05;;;;;;;3.08;1.52;;;16.40;59.70;;;;;;5152195;27;44677;-52
2024/01/31 07:33:33;;;;;;;3.35;1.35;;;16.40;59.70;;;;;;5152701;27;45419;-52
2024/01/31 07:36:02;;;;;;;2.50;1.30;;;16.40;59.70;;;;;;5152639;27;45274;-52
2024/01/31 07:38:28;;;;;;;2.72;1.25;;;16.40;59.60;;;;;;5151227;27;45127;-52
2024/01/31 07:40:56;;;;;;;1.42;1.15;;;16.50;59.90;;;;;;5153403;27;45171;-52
2024/01/31 07:43:22;;;;;;;2.58;1.30;;;16.50;60.00;;;;;;5155267;27;45457;-52
2024/01/31 07:45:49;;;;;;;2.67;1.30;;;16.40;59.90;;;;;;5154575;27;45365;-52
2024/01/31 07:48:16;;;;;;;1.75;1.17;;;16.40;60.00;;;;;;5153319;27;45167;-52
2024/01/31 07:50:44;;;;;;;1.83;1.20;;;16.50;60.10;;;;;;5151944;27;45766;-52
2024/01/31 07:53:11;;;;;;;2.42;1.30;;;16.50;60.20;;;;;;5154339;27;45273;-52
2024/01/31 07:55:38;;;;;;;3.47;1.20;;;16.40;60.50;;;;;;5154015;27;48082;-51
2024/01/31 07:58:05;;;;;;;2.70;1.70;;;16.40;60.40;;;;;;5154765;27;45181;-52
2024/01/31 08:00:31;;;;;;;2.20;1.40;;;16.40;60.60;;;;;;5153284;27;45301;-51
2024/01/31 08:02:58;;;;;;;2.75;1.30;;;16.40;60.70;;;;;;5157798;27;45303;-51
2024/01/31 08:05:25;;;;;;;1.20;0.90;;;16.40;60.70;;;;;;5150407;27;45258;-51
2024/01/31 08:07:54;;;;;;;1.75;1.08;;;16.30;60.80;;;;;;5153537;27;45174;-52
2024/01/31 08:10:20;;;;;;;2.33;1.33;;;16.40;61.00;;;;;;5150233;27;45245;-52
2024/01/31 08:12:48;;;;;;;2.10;1.30;;;16.40;61.10;;;;;;5152249;27;45131;-52
2024/01/31 08:15:15;;;;;;;2.42;1.35;;;16.40;61.20;;;;;;5155777;27;45461;-52
2024/01/31 08:17:42;;;;;;;2.38;1.23;;;16.40;61.20;;;;;;5155472;27;45321;-51
2024/01/31 08:20:10;;;;;;;2.08;1.20;;;16.40;61.30;;;;;;5151611;27;45233;-52
2024/01/31 08:22:37;;;;;;;2.53;1.35;;;16.40;61.50;;;;;;5158112;27;45301;-52
2024/01/31 08:25:05;;;;;;;2.53;1.10;;;16.40;61.40;;;;;;5149084;27;46520;-52
2024/01/31 08:27:32;;;;;;;4.45;1.42;;;16.40;61.50;;;;;;5153200;27;45446;-52
2024/01/31 08:29:59;;;;;;;2.83;1.13;;;16.40;61.40;;;;;;5153217;27;45294;-52
2024/01/31 08:32:26;;;;;;;2.97;1.30;;;16.40;61.50;;;;;;5152591;27;44909;-52
2024/01/31 08:34:53;;;;;;;3.00;1.33;;;16.40;61.50;;;;;;5153155;27;46343;-52
2024/01/31 08:37:19;;;;;;;2.45;1.17;;;16.40;61.50;;;;;;5148881;27;45188;-52
2024/01/31 08:39:46;;;;;;;2.70;1.55;;;16.40;61.50;;;;;;5150541;27;45130;-52
2024/01/31 08:42:15;;;;;;;2.10;1.30;;;16.40;61.40;;;;;;5151070;27;45122;-52
2024/01/31 08:44:41;;;;;;;3.70;1.73;;;16.50;61.40;;;;;;5153937;27;45168;-52
2024/01/31 08:47:08;;;;;;;2.78;1.60;;;16.40;61.30;;;;;;5154825;27;45243;-52
2024/01/31 08:49:35;;;;;;;19.58;2.65;;;16.40;61.10;;;;;;5152233;27;45189;-52
2024/01/31 08:52:02;;;;;;;5.55;1.70;;;16.50;61.70;;;;;;5153432;27;45214;-52
2024/01/31 08:54:29;;;;;;;7.80;2.30;;;16.50;61.40;;;;;;5154329;27;45242;-52
2024/01/31 08:56:56;;;;;;;5.90;1.67;;;16.40;61.60;;;;;;5151637;27;45279;-52
2024/01/31 08:59:24;;;;;;;3.75;1.85;;;16.40;61.70;;;;;;5149860;27;44686;-52
2024/01/31 09:01:51;;;;;;;5.40;1.80;;;16.40;61.90;;;;;;5153093;27;45090;-52
2024/01/31 09:04:18;;;;;;;2.72;1.58;;;16.40;61.90;;;;;;5151234;27;45171;-52
2024/01/31 09:06:45;;;;;;;3.22;2.05;;;16.40;61.90;;;;;;5148886;27;45361;-52
2024/01/31 09:09:12;;;;;;;3.95;2.20;;;16.40;61.90;;;;;;5151696;27;45261;-52
2024/01/31 09:11:39;;;;;;;3.58;2.22;;;16.40;61.90;;;;;;5153979;27;45208;-52
2024/01/31 09:14:05;;;;;;;3.90;2.45;;;16.40;62.00;;;;;;5149713;27;46297;-52
2024/01/31 09:16:34;;;;;;;9.35;2.42;;;16.40;62.10;;;;;;5148260;27;45393;-52
2024/01/31 09:19:01;;;;;;;4.50;2.30;;;16.40;62.00;;;;;;5148407;27;44744;-51
2024/01/31 09:21:28;;;;;;;4.28;2.33;;;16.50;62.20;;;;;;5155153;27;44975;-52
2024/01/31 09:23:54;;;;;;;3.95;2.75;;;16.40;62.00;;;;;;5153341;27;45417;-52
2024/01/31 09:26:21;;;;;;;3.40;2.25;;;16.50;62.00;;;;;;5148860;27;44654;-52
2024/01/31 09:28:48;;;;;;;4.75;2.67;;;16.50;61.90;;;;;;5152983;27;45220;-52
2024/01/31 09:31:21;;;;;;;4.40;2.58;;;16.50;61.90;;;;;;5148793;27;45624;-52
2024/01/31 09:33:49;;;;;;;6.00;2.83;;;16.50;61.70;;;;;;5155021;27;46530;-52
2024/01/31 09:36:16;;;;;;;6.80;2.80;;;16.50;61.70;;;;;;5144283;27;44764;-52
2024/01/31 09:38:44;;;;;;;5.47;2.72;;;16.50;61.70;;;;;;5153014;27;45442;-52
2024/01/31 09:41:11;;;;;;;5.15;3.10;;;16.60;61.60;;;;;;5148933;27;45179;-52
2024/01/31 09:43:38;;;;;;;3.75;2.67;;;16.60;61.50;;;;;;5158177;27;45534;-52
2024/01/31 09:46:07;;;;;;;3.92;2.53;;;16.60;61.40;;;;;;5151056;27;45238;-52
2024/01/31 09:48:34;;;;;;;3.88;2.58;;;16.60;61.50;;;;;;5151647;27;45213;-52
2024/01/31 09:51:02;;;;;;;4.65;2.70;;;16.60;61.40;;;;;;5151462;27;44825;-52
2024/01/31 09:53:33;;;;;;;7.72;2.80;;;16.60;61.30;;;;;;5149918;27;46510;-52
2024/01/31 09:56:00;;;;;;;6.10;2.95;;;16.60;61.30;;;;;;5155499;27;45328;-52
2024/01/31 09:58:27;;;;;;;8.25;2.92;;;16.60;61.40;;;;;;5150574;27;45145;-51
2024/01/31 10:00:56;;;;;;;4.43;2.70;;;16.60;61.40;;;;;;5156434;27;45188;-52
2024/01/31 10:03:23;;;;;;;4.57;2.55;;;16.60;61.40;;;;;;5148356;27;46327;-52
2024/01/31 10:05:49;;;;;;;5.28;3.15;;;16.60;61.40;;;;;;5150006;27;45150;-52
2024/01/31 10:08:18;;;;;;;5.28;3.10;;;16.60;61.40;;;;;;5149615;27;45241;-52
2024/01/31 10:10:44;;;;;;;4.55;2.92;;;16.60;61.40;;;;;;5151211;27;44680;-52
2024/01/31 10:13:11;;;;;;;5.63;3.08;;;16.60;61.50;;;;;;5152687;27;45489;-52
2024/01/31 10:15:38;;;;;;;4.68;2.95;;;16.60;61.50;;;;;;5151273;27;45210;-51
2024/01/31 10:18:06;;;;;;;5.13;3.45;;;16.60;61.50;;;;;;5149997;27;45149;-52
2024/01/31 10:20:33;;;;;;;6.47;3.47;;;16.60;61.50;;;;;;5154359;27;45186;-51
2024/01/31 10:23:00;;;;;;;4.07;3.30;;;16.70;61.60;;;;;;5151676;27;45203;-52
2024/01/31 10:25:28;;;;;;;5.82;3.47;;;16.70;61.40;;;;;;5149460;27;44699;-52
2024/01/31 10:27:55;;;;;;;5.10;3.42;;;16.70;61.20;;;;;;5146840;27;45337;-51
2024/01/31 10:30:22;;;;;;;7.43;3.75;;;16.70;61.40;;;;;;5155795;27;45368;-52
2024/01/31 10:32:49;;;;;;;5.57;3.45;;;16.70;61.60;;;;;;5154528;27;45201;-51
2024/01/31 10:35:17;;;;;;;6.30;3.35;;;16.60;61.70;;;;;;5153961;27;45243;-52
2024/01/31 10:37:43;;;;;;;6.22;3.75;;;16.60;61.90;;;;;;5157623;27;45309;-51
2024/01/31 10:40:11;;;;;;;7.22;3.95;;;16.50;62.10;;;;;;5154381;27;45264;-52
2024/01/31 10:42:40;;;;;;;7.50;3.53;;;16.50;62.40;;;;;;5152379;27;46362;-52
2024/01/31 10:45:08;;;;;;;5.43;3.33;;;16.40;62.40;;;;;;5154791;27;45317;-51
2024/01/31 10:47:34;;;;;;;5.78;3.30;;;16.40;62.40;;;;;;5159012;27;45237;-51
2024/01/31 10:50:02;;;;;;;7.22;3.90;;;16.40;62.80;;;;;;5154453;27;45168;-52
2024/01/31 10:52:33;;;;;;;7.43;3.65;;;16.40;63.10;;;;;;5153171;27;45270;-52
2024/01/31 10:55:03;;;;;;;6.25;4.10;;;16.40;63.50;;;;;;5152634;27;45184;-52
2024/01/31 10:57:31;;;;;;;6.85;4.05;;;16.40;63.50;;;;;;5151999;27;45267;-52
2024/01/31 11:00:00;;;;;;;6.50;4.10;;;16.40;63.50;;;;;;5153750;27;45343;-52
2024/01/31 11:02:31;;;;;;;7.28;4.53;;;16.40;63.40;;;;;;5151906;27;46181;-51
2024/01/31 11:05:00;;;;;;;6.00;4.05;;;16.40;64.30;;;;;;5158156;27;45368;-51
2024/01/31 11:07:26;;;;;;;7.82;4.18;;;16.40;63.30;;;;;;5150377;27;45097;-51
2024/01/31 11:09:55;;;;;;;5.93;4.45;;;16.40;64.30;;;;;;5152264;27;45197;-52
2024/01/31 11:12:22;;;;;;;7.28;4.40;;;16.40;63.20;;;;;;5152954;27;45244;-52
2024/01/31 11:14:50;;;;;;;5.93;4.30;;;16.40;63.10;;;;;;5155528;27;45345;-52
2024/01/31 11:17:22;;;;;;;5.80;3.97;;;16.50;63.30;;;;;;5150714;27;45302;-52
2024/01/31 11:19:52;;;;;;;7.80;4.45;;;16.40;63.20;;;;;;5154765;27;45437;-52
2024/01/31 11:22:19;;;;;;;4.32;3.42;;;16.50;63.10;;;;;;5156179;27;45178;-52
2024/01/31 11:24:46;;;;;;;4.80;3.50;;;16.50;63.10;;;;;;5153239;27;45177;-51
2024/01/31 11:27:14;;;;;;;4.75;3.70;;;16.50;63.00;;;;;;5152792;27;44670;-52
2024/01/31 11:29:41;;;;;;;4.47;3.40;;;16.50;63.10;;;;;;5152742;27;44822;-51
2024/01/31 11:32:09;;;;;;;4.18;3.33;;;16.50;62.90;;;;;;5155889;27;47474;-52
2024/01/31 11:34:37;;;;;;;6.00;3.50;;;16.50;63.00;;;;;;5153602;27;45212;-51
2024/01/31 11:37:04;;;;;;;4.53;3.35;;;16.50;62.80;;;;;;5153498;27;45293;-52
2024/01/31 11:39:31;;;;;;;6.57;3.53;;;16.50;62.90;;;;;;5154274;27;45173;-52
2024/01/31 11:41:58;;;;;;;4.93;3.47;;;16.50;62.40;;;;;;5151458;27;47433;-51
2024/01/31 11:44:25;;;;;;;5.28;3.38;;;16.50;61.20;;;;;;5151263;27;45172;-52
2024/01/31 11:46:52;;;;;;;5.05;3.70;;;16.50;60.30;;;;;;5154495;27;45179;-51
2024/01/31 11:49:19;;;;;;;3.70;2.83;;;16.50;61.20;;;;;;5156776;27;45168;-52
2024/01/31 11:51:47;;;;;;;4.07;3.15;;;16.60;61.40;;;;;;5149754;27;45187;-51
2024/01/31 11:54:14;;;;;;;4.15;2.85;;;16.60;61.50;;;;;;5150418;27;45272;-51
2024/01/31 11:56:41;;;;;;;6.32;3.10;;;16.50;61.50;;;;;;5154740;27;45204;-51
2024/01/31 11:59:08;;;;;;;3.03;2.50;;;16.50;61.40;;;;;;5152281;27;45172;-51
2024/01/31 12:01:35;;;;;;;4.00;2.67;;;16.50;61.40;;;;;;5155536;27;47701;-51
2024/01/31 12:04:02;;;;;;;3.35;2.33;;;16.60;61.50;;;;;;5154608;27;45303;-51
2024/01/31 12:06:29;;;;;;;2.53;2.00;;;16.50;61.40;;;;;;5150362;27;45342;-51
2024/01/31 12:08:58;;;;;;;3.67;2.22;;;16.60;61.40;;;;;;5151392;27;45129;-51
2024/01/31 12:11:24;;;;;;;3.28;2.03;;;16.50;61.30;;;;;;5154141;27;47014;-51
2024/01/31 12:13:51;;;;;;;3.10;2.13;;;16.60;61.50;;;;;;5154154;27;45342;-51
2024/01/31 12:16:18;;;;;;;3.15;2.10;;;16.60;61.40;;;;;;5152333;27;45322;-51
2024/01/31 12:18:45;;;;;;;3.13;2.33;;;16.60;61.30;;;;;;5152500;27;45158;-51
2024/01/31 12:21:11;;;;;;;4.57;1.80;;;16.60;61.10;;;;;;5151077;27;46566;-52
2024/01/31 12:23:38;;;;;;;2.50;1.80;;;16.60;61.00;;;;;;5155294;27;44585;-51
2024/01/31 12:26:06;;;;;;;2.42;1.80;;;16.60;61.00;;;;;;5149765;27;45225;-51
2024/01/31 12:28:33;;;;;;;2.05;1.63;;;16.60;62.10;;;;;;5155217;27;45349;-51
2024/01/31 12:31:00;;;;;;;4.05;1.67;;;16.60;60.80;;;;;;5150796;27;45438;-51
2024/01/31 12:33:26;;;;;;;3.08;1.83;;;16.60;60.70;;;;;;5149256;27;45153;-51
2024/01/31 12:35:54;;;;;;;2.72;1.50;;;16.60;60.50;;;;;;5153535;27;45295;-51
2024/01/31 12:38:20;;;;;;;1.80;1.63;;;16.60;60.30;;;;;;5149589;27;45474;-51
2024/01/31 12:40:47;;;;;;;2.42;1.50;;;16.60;60.20;;;;;;5149444;27;45430;-52
2024/01/31 12:43:15;;;;;;;1.58;1.38;;;16.70;60.30;;;;;;5154520;27;45239;-51
2024/01/31 12:45:42;;;;;;;2.67;1.60;;;16.70;60.30;;;;;;5150865;27;44676;-51
2024/01/31 12:48:09;;;;;;;2.55;1.52;;;16.70;60.10;;;;;;5156228;27;45248;-51